sensor_id;sensor_type;location;lat;lon;timestamp;temperature;humidity
53053;DHT22;38934;52.690;6.184;2022-11-02T00:00:38;12.00;99.90
53053;DHT22;38934;52.690;6.184;2022-11-02T00:03:03;12.00;99.90
53053;DHT22;38934;52.690;6.184;2022-11-02T00:05:29;12.00;99.90
53053;DHT22;38934;52.690;6.184;2022-11-02T00:07:55;12.00;99.90
53053;DHT22;38934;52.690;6.184;2022-11-02T00:10:21;12.00;99.90
53053;DHT22;38934;52.690;6.184;2022-11-02T00:12:47;12.50;99.90
53053;DHT22;38934;52.690;6.184;2022-11-02T00:15:13;12.00;99.90
53053;DHT22;38934;52.690;6.184;2022-11-02T00:17:49;12.00;99.90
53053;DHT22;38934;52.690;6.184;2022-11-02T00:20:15;12.00;99.90
53053;DHT22;38934;52.690;6.184;2022-11-02T00:22:41;12.00;99.90
53053;DHT22;38934;52.690;6.184;2022-11-02T00:25:07;12.00;99.90
53053;DHT22;38934;52.690;6.184;2022-11-02T00:27:33;12.00;99.90
53053;DHT22;38934;52.690;6.184;2022-11-02T00:29:59;12.10;99.90
53053;DHT22;38934;52.690;6.184;2022-11-02T00:32:25;12.10;99.90
53053;DHT22;38934;52.690;6.184;2022-11-02T00:34:50;12.10;99.90
53053;DHT22;38934;52.690;6.184;2022-11-02T00:37:16;12.10;99.90
53053;DHT22;38934;52.690;6.184;2022-11-02T00:39:41;12.10;99.90
53053;DHT22;38934;52.690;6.184;2022-11-02T00:42:07;12.80;99.90
53053;DHT22;38934;52.690;6.184;2022-11-02T00:44:32;12.00;99.90
53053;DHT22;38934;52.690;6.184;2022-11-02T00:46:58;12.00;99.90
53053;DHT22;38934;52.690;6.184;2022-11-02T00:49:23;11.90;99.90
53053;DHT22;38934;52.690;6.184;2022-11-02T00:51:49;11.90;99.90
53053;DHT22;38934;52.690;6.184;2022-11-02T00:54:14;11.90;99.90
53053;DHT22;38934;52.690;6.184;2022-11-02T00:56:40;11.90;99.90
53053;DHT22;38934;52.690;6.184;2022-11-02T00:59:05;11.80;99.90
53053;DHT22;38934;52.690;6.184;2022-11-02T01:01:31;11.80;99.90
53053;DHT22;38934;52.690;6.184;2022-11-02T01:03:56;11.90;99.90
53053;DHT22;38934;52.690;6.184;2022-11-02T01:06:22;11.70;99.90
53053;DHT22;38934;52.690;6.184;2022-11-02T01:08:47;11.60;99.90
53053;DHT22;38934;52.690;6.184;2022-11-02T01:11:17;11.60;99.90
53053;DHT22;38934;52.690;6.184;2022-11-02T01:13:43;11.50;99.90
53053;DHT22;38934;52.690;6.184;2022-11-02T01:16:09;11.50;99.90
53053;DHT22;38934;52.690;6.184;2022-11-02T01:18:34;11.60;99.90
53053;DHT22;38934;52.690;6.184;2022-11-02T01:21:00;11.60;99.90
53053;DHT22;38934;52.690;6.184;2022-11-02T01:23:25;11.70;99.90
53053;DHT22;38934;52.690;6.184;2022-11-02T01:25:51;11.80;99.90
53053;DHT22;38934;52.690;6.184;2022-11-02T01:28:17;11.60;99.90
53053;DHT22;38934;52.690;6.184;2022-11-02T01:30:42;11.60;99.90
53053;DHT22;38934;52.690;6.184;2022-11-02T01:33:08;11.60;99.90
53053;DHT22;38934;52.690;6.184;2022-11-02T01:35:35;11.60;99.90
53053;DHT22;38934;52.690;6.184;2022-11-02T01:38:00;11.70;99.90
53053;DHT22;38934;52.690;6.184;2022-11-02T01:40:26;11.60;99.90
53053;DHT22;38934;52.690;6.184;2022-11-02T01:42:51;11.60;99.90
53053;DHT22;38934;52.690;6.184;2022-11-02T01:45:17;11.60;99.90
53053;DHT22;38934;52.690;6.184;2022-11-02T01:47:43;11.90;99.90
53053;DHT22;38934;52.690;6.184;2022-11-02T01:50:12;11.70;99.90
53053;DHT22;38934;52.690;6.184;2022-11-02T01:52:39;11.70;99.90
53053;DHT22;38934;52.690;6.184;2022-11-02T01:57:31;11.70;99.90
53053;DHT22;38934;52.690;6.184;2022-11-02T01:59:58;12.20;99.90
53053;DHT22;38934;52.690;6.184;2022-11-02T02:02:26;12.10;99.90
53053;DHT22;38934;52.690;6.184;2022-11-02T02:04:53;11.70;99.90
53053;DHT22;38934;52.690;6.184;2022-11-02T02:07:20;11.70;99.90
53053;DHT22;38934;52.690;6.184;2022-11-02T02:09:48;11.90;99.90
53053;DHT22;38934;52.690;6.184;2022-11-02T02:12:14;11.50;99.90
53053;DHT22;38934;52.690;6.184;2022-11-02T02:14:40;11.40;99.90
53053;DHT22;38934;52.690;6.184;2022-11-02T02:19:39;11.90;99.90
53053;DHT22;38934;52.690;6.184;2022-11-02T02:22:11;11.10;99.90
53053;DHT22;38934;52.690;6.184;2022-11-02T02:30:06;11.00;99.90
53053;DHT22;38934;52.690;6.184;2022-11-02T02:32:38;11.00;99.90
53053;DHT22;38934;52.690;6.184;2022-11-02T02:37:56;11.00;99.90
53053;DHT22;38934;52.690;6.184;2022-11-02T02:43:12;11.10;99.90
53053;DHT22;38934;52.690;6.184;2022-11-02T02:45:50;11.10;99.90
53053;DHT22;38934;52.690;6.184;2022-11-02T02:48:18;11.10;99.90
53053;DHT22;38934;52.690;6.184;2022-11-02T02:50:48;11.10;99.90
53053;DHT22;38934;52.690;6.184;2022-11-02T02:53:15;11.10;99.90
53053;DHT22;38934;52.690;6.184;2022-11-02T02:55:42;11.60;99.90
53053;DHT22;38934;52.690;6.184;2022-11-02T02:58:11;11.00;99.90
53053;DHT22;38934;52.690;6.184;2022-11-02T03:00:38;10.90;99.90
53053;DHT22;38934;52.690;6.184;2022-11-02T03:03:03;11.00;99.90
53053;DHT22;38934;52.690;6.184;2022-11-02T03:05:33;11.00;99.90
53053;DHT22;38934;52.690;6.184;2022-11-02T03:08:06;10.70;99.90
53053;DHT22;38934;52.690;6.184;2022-11-02T03:10:34;10.60;99.90
53053;DHT22;38934;52.690;6.184;2022-11-02T03:13:16;10.50;99.90
53053;DHT22;38934;52.690;6.184;2022-11-02T03:15:43;10.50;99.90
53053;DHT22;38934;52.690;6.184;2022-11-02T03:18:31;10.40;99.90
53053;DHT22;38934;52.690;6.184;2022-11-02T03:21:05;10.40;99.90
53053;DHT22;38934;52.690;6.184;2022-11-02T03:23:33;10.40;99.90
53053;DHT22;38934;52.690;6.184;2022-11-02T03:26:01;10.40;99.90
53053;DHT22;38934;52.690;6.184;2022-11-02T03:31:07;10.40;99.90
53053;DHT22;38934;52.690;6.184;2022-11-02T03:33:37;10.30;99.90
53053;DHT22;38934;52.690;6.184;2022-11-02T03:36:18;10.40;99.90
53053;DHT22;38934;52.690;6.184;2022-11-02T03:38:46;10.40;99.90
53053;DHT22;38934;52.690;6.184;2022-11-02T03:41:14;10.90;99.90
53053;DHT22;38934;52.690;6.184;2022-11-02T03:43:40;10.40;99.90
53053;DHT22;38934;52.690;6.184;2022-11-02T03:46:06;10.40;99.90
53053;DHT22;38934;52.690;6.184;2022-11-02T03:48:43;10.40;99.90
53053;DHT22;38934;52.690;6.184;2022-11-02T03:51:10;10.50;99.90
53053;DHT22;38934;52.690;6.184;2022-11-02T03:56:06;10.40;99.90
53053;DHT22;38934;52.690;6.184;2022-11-02T03:58:33;10.50;99.90
53053;DHT22;38934;52.690;6.184;2022-11-02T04:01:01;10.40;99.90
53053;DHT22;38934;52.690;6.184;2022-11-02T04:03:26;10.40;99.90
53053;DHT22;38934;52.690;6.184;2022-11-02T04:05:53;10.50;99.90
53053;DHT22;38934;52.690;6.184;2022-11-02T04:08:20;10.50;99.90
53053;DHT22;38934;52.690;6.184;2022-11-02T04:10:51;10.50;99.90
53053;DHT22;38934;52.690;6.184;2022-11-02T04:13:35;10.50;99.90
53053;DHT22;38934;52.690;6.184;2022-11-02T04:16:19;10.40;99.90
53053;DHT22;38934;52.690;6.184;2022-11-02T04:18:45;10.40;99.90
53053;DHT22;38934;52.690;6.184;2022-11-02T04:21:30;10.40;99.90
53053;DHT22;38934;52.690;6.184;2022-11-02T04:23:55;10.40;99.90
53053;DHT22;38934;52.690;6.184;2022-11-02T04:26:39;10.40;99.90
53053;DHT22;38934;52.690;6.184;2022-11-02T04:29:05;10.50;99.90
53053;DHT22;38934;52.690;6.184;2022-11-02T04:31:31;10.50;99.90
53053;DHT22;38934;52.690;6.184;2022-11-02T04:33:56;10.60;99.90
53053;DHT22;38934;52.690;6.184;2022-11-02T04:36:25;10.60;99.90
53053;DHT22;38934;52.690;6.184;2022-11-02T04:38:52;10.80;99.90
53053;DHT22;38934;52.690;6.184;2022-11-02T04:41:19;10.70;99.90
53053;DHT22;38934;52.690;6.184;2022-11-02T04:44:03;10.70;99.90
53053;DHT22;38934;52.690;6.184;2022-11-02T04:46:29;11.40;99.90
53053;DHT22;38934;52.690;6.184;2022-11-02T04:48:55;10.80;99.90
53053;DHT22;38934;52.690;6.184;2022-11-02T04:51:22;10.80;99.90
53053;DHT22;38934;52.690;6.184;2022-11-02T04:53:47;11.00;99.90
53053;DHT22;38934;52.690;6.184;2022-11-02T04:56:13;10.80;99.90
53053;DHT22;38934;52.690;6.184;2022-11-02T04:58:38;10.80;99.90
53053;DHT22;38934;52.690;6.184;2022-11-02T05:01:08;10.90;99.90
53053;DHT22;38934;52.690;6.184;2022-11-02T05:03:35;10.90;99.90
53053;DHT22;38934;52.690;6.184;2022-11-02T05:06:01;10.90;99.90
53053;DHT22;38934;52.690;6.184;2022-11-02T05:08:27;11.20;99.90
53053;DHT22;38934;52.690;6.184;2022-11-02T05:10:53;11.30;99.90
53053;DHT22;38934;52.690;6.184;2022-11-02T05:13:19;11.00;99.90
53053;DHT22;38934;52.690;6.184;2022-11-02T05:15:44;11.00;99.90
53053;DHT22;38934;52.690;6.184;2022-11-02T05:18:10;11.00;99.90
53053;DHT22;38934;52.690;6.184;2022-11-02T05:20:35;10.90;99.90
53053;DHT22;38934;52.690;6.184;2022-11-02T05:23:00;10.80;99.90
53053;DHT22;38934;52.690;6.184;2022-11-02T05:25:26;10.80;99.90
53053;DHT22;38934;52.690;6.184;2022-11-02T05:27:51;10.70;99.90
53053;DHT22;38934;52.690;6.184;2022-11-02T05:30:17;10.70;99.90
53053;DHT22;38934;52.690;6.184;2022-11-02T05:32:42;10.70;99.90
53053;DHT22;38934;52.690;6.184;2022-11-02T05:35:08;10.70;99.90
53053;DHT22;38934;52.690;6.184;2022-11-02T05:37:33;10.70;99.90
53053;DHT22;38934;52.690;6.184;2022-11-02T05:39:59;10.70;99.90
53053;DHT22;38934;52.690;6.184;2022-11-02T05:42:24;10.70;99.90
53053;DHT22;38934;52.690;6.184;2022-11-02T05:44:50;10.70;99.90
53053;DHT22;38934;52.690;6.184;2022-11-02T05:47:15;10.90;99.90
53053;DHT22;38934;52.690;6.184;2022-11-02T05:49:41;10.70;99.90
53053;DHT22;38934;52.690;6.184;2022-11-02T05:52:06;10.70;99.90
53053;DHT22;38934;52.690;6.184;2022-11-02T05:54:32;10.70;99.90
53053;DHT22;38934;52.690;6.184;2022-11-02T05:56:58;11.20;99.90
53053;DHT22;38934;52.690;6.184;2022-11-02T05:59:23;10.60;99.90
53053;DHT22;38934;52.690;6.184;2022-11-02T06:01:48;10.70;99.90
53053;DHT22;38934;52.690;6.184;2022-11-02T06:04:14;10.60;99.90
53053;DHT22;38934;52.690;6.184;2022-11-02T06:06:39;10.70;99.90
53053;DHT22;38934;52.690;6.184;2022-11-02T06:09:05;11.00;99.90
53053;DHT22;38934;52.690;6.184;2022-11-02T06:11:30;10.60;99.90
53053;DHT22;38934;52.690;6.184;2022-11-02T06:13:56;10.60;99.90
53053;DHT22;38934;52.690;6.184;2022-11-02T06:16:22;10.60;99.90
53053;DHT22;38934;52.690;6.184;2022-11-02T06:18:47;10.60;99.90
53053;DHT22;38934;52.690;6.184;2022-11-02T06:21:13;10.60;99.90
53053;DHT22;38934;52.690;6.184;2022-11-02T06:23:39;10.60;99.90
53053;DHT22;38934;52.690;6.184;2022-11-02T06:26:08;10.60;99.90
53053;DHT22;38934;52.690;6.184;2022-11-02T06:28:33;10.60;99.90
53053;DHT22;38934;52.690;6.184;2022-11-02T06:30:59;10.50;99.90
53053;DHT22;38934;52.690;6.184;2022-11-02T06:33:24;10.50;99.90
53053;DHT22;38934;52.690;6.184;2022-11-02T06:35:51;10.40;99.90
53053;DHT22;38934;52.690;6.184;2022-11-02T06:38:17;10.40;99.90
53053;DHT22;38934;52.690;6.184;2022-11-02T06:40:43;10.30;99.90
53053;DHT22;38934;52.690;6.184;2022-11-02T06:43:08;10.30;99.90
53053;DHT22;38934;52.690;6.184;2022-11-02T06:45:34;10.40;99.90
53053;DHT22;38934;52.690;6.184;2022-11-02T06:47:59;10.30;99.90
53053;DHT22;38934;52.690;6.184;2022-11-02T06:50:25;10.30;99.90
53053;DHT22;38934;52.690;6.184;2022-11-02T06:52:51;10.90;99.90
53053;DHT22;38934;52.690;6.184;2022-11-02T06:55:17;10.30;99.90
53053;DHT22;38934;52.690;6.184;2022-11-02T06:57:42;10.40;99.90
53053;DHT22;38934;52.690;6.184;2022-11-02T07:00:09;10.40;99.90
53053;DHT22;38934;52.690;6.184;2022-11-02T07:02:40;10.40;99.90
53053;DHT22;38934;52.690;6.184;2022-11-02T07:05:05;10.50;99.90
53053;DHT22;38934;52.690;6.184;2022-11-02T07:07:31;10.60;99.90
53053;DHT22;38934;52.690;6.184;2022-11-02T07:09:57;11.10;99.90
53053;DHT22;38934;52.690;6.184;2022-11-02T07:12:23;10.70;99.90
53053;DHT22;38934;52.690;6.184;2022-11-02T07:14:49;10.70;99.90
53053;DHT22;38934;52.690;6.184;2022-11-02T07:17:14;10.70;99.90
53053;DHT22;38934;52.690;6.184;2022-11-02T07:19:39;10.80;99.90
53053;DHT22;38934;52.690;6.184;2022-11-02T07:22:05;10.90;99.90
53053;DHT22;38934;52.690;6.184;2022-11-02T07:24:30;10.80;99.90
53053;DHT22;38934;52.690;6.184;2022-11-02T07:26:56;10.90;99.90
53053;DHT22;38934;52.690;6.184;2022-11-02T07:29:21;10.90;99.90
53053;DHT22;38934;52.690;6.184;2022-11-02T07:31:47;11.20;99.90
53053;DHT22;38934;52.690;6.184;2022-11-02T07:34:13;11.10;99.90
53053;DHT22;38934;52.690;6.184;2022-11-02T07:36:38;11.00;99.90
53053;DHT22;38934;52.690;6.184;2022-11-02T07:39:04;11.30;99.90
53053;DHT22;38934;52.690;6.184;2022-11-02T07:41:30;11.10;99.90
53053;DHT22;38934;52.690;6.184;2022-11-02T07:43:55;11.10;99.90
53053;DHT22;38934;52.690;6.184;2022-11-02T07:46:21;11.10;99.90
53053;DHT22;38934;52.690;6.184;2022-11-02T07:48:46;11.10;99.90
53053;DHT22;38934;52.690;6.184;2022-11-02T07:51:12;11.90;99.90
53053;DHT22;38934;52.690;6.184;2022-11-02T07:53:38;11.10;99.90
53053;DHT22;38934;52.690;6.184;2022-11-02T07:56:03;11.10;99.90
53053;DHT22;38934;52.690;6.184;2022-11-02T07:58:29;11.10;99.90
53053;DHT22;38934;52.690;6.184;2022-11-02T08:00:56;11.70;99.90
53053;DHT22;38934;52.690;6.184;2022-11-02T08:03:22;11.10;99.90
53053;DHT22;38934;52.690;6.184;2022-11-02T08:05:47;11.10;99.90
53053;DHT22;38934;52.690;6.184;2022-11-02T08:08:13;11.80;99.90
53053;DHT22;38934;52.690;6.184;2022-11-02T08:10:40;11.10;99.90
53053;DHT22;38934;52.690;6.184;2022-11-02T08:13:10;11.20;99.90
53053;DHT22;38934;52.690;6.184;2022-11-02T08:15:36;11.20;99.90
53053;DHT22;38934;52.690;6.184;2022-11-02T08:18:02;11.20;99.90
53053;DHT22;38934;52.690;6.184;2022-11-02T08:20:28;11.20;99.90
53053;DHT22;38934;52.690;6.184;2022-11-02T08:22:54;11.30;99.90
53053;DHT22;38934;52.690;6.184;2022-11-02T08:25:19;11.20;99.90
53053;DHT22;38934;52.690;6.184;2022-11-02T08:27:45;11.90;99.90
53053;DHT22;38934;52.690;6.184;2022-11-02T08:30:10;11.20;99.90
53053;DHT22;38934;52.690;6.184;2022-11-02T08:32:36;11.10;99.90
53053;DHT22;38934;52.690;6.184;2022-11-02T08:35:01;11.20;99.90
53053;DHT22;38934;52.690;6.184;2022-11-02T08:37:27;11.10;99.90
53053;DHT22;38934;52.690;6.184;2022-11-02T08:39:52;11.10;99.90
53053;DHT22;38934;52.690;6.184;2022-11-02T08:42:18;11.10;99.90
53053;DHT22;38934;52.690;6.184;2022-11-02T08:44:43;11.30;99.90
53053;DHT22;38934;52.690;6.184;2022-11-02T08:47:09;11.10;99.90
53053;DHT22;38934;52.690;6.184;2022-11-02T08:49:34;11.10;99.90
53053;DHT22;38934;52.690;6.184;2022-11-02T08:52:00;11.10;99.90
53053;DHT22;38934;52.690;6.184;2022-11-02T08:54:25;11.40;99.90
53053;DHT22;38934;52.690;6.184;2022-11-02T08:56:51;11.10;99.90
53053;DHT22;38934;52.690;6.184;2022-11-02T08:59:16;11.20;99.90
53053;DHT22;38934;52.690;6.184;2022-11-02T09:01:42;11.20;99.90
53053;DHT22;38934;52.690;6.184;2022-11-02T09:04:07;11.30;99.90
53053;DHT22;38934;52.690;6.184;2022-11-02T09:06:33;11.30;99.90
53053;DHT22;38934;52.690;6.184;2022-11-02T09:08:58;11.30;99.90
53053;DHT22;38934;52.690;6.184;2022-11-02T09:11:24;11.40;99.90
53053;DHT22;38934;52.690;6.184;2022-11-02T09:13:49;11.50;99.90
53053;DHT22;38934;52.690;6.184;2022-11-02T09:16:15;11.40;99.90
53053;DHT22;38934;52.690;6.184;2022-11-02T09:18:40;11.50;99.90
53053;DHT22;38934;52.690;6.184;2022-11-02T09:21:06;11.80;99.90
53053;DHT22;38934;52.690;6.184;2022-11-02T09:23:31;11.60;99.90
53053;DHT22;38934;52.690;6.184;2022-11-02T09:25:57;11.60;99.90
53053;DHT22;38934;52.690;6.184;2022-11-02T09:28:24;11.60;99.90
53053;DHT22;38934;52.690;6.184;2022-11-02T09:30:49;11.70;99.90
53053;DHT22;38934;52.690;6.184;2022-11-02T09:33:15;11.70;99.90
53053;DHT22;38934;52.690;6.184;2022-11-02T09:35:42;11.90;99.90
53053;DHT22;38934;52.690;6.184;2022-11-02T09:38:08;11.80;99.90
53053;DHT22;38934;52.690;6.184;2022-11-02T09:40:37;11.80;99.90
53053;DHT22;38934;52.690;6.184;2022-11-02T09:45:35;12.00;99.90
53053;DHT22;38934;52.690;6.184;2022-11-02T09:48:11;12.10;99.90
53053;DHT22;38934;52.690;6.184;2022-11-02T09:50:43;12.20;99.90
53053;DHT22;38934;52.690;6.184;2022-11-02T09:53:12;12.30;99.90
53053;DHT22;38934;52.690;6.184;2022-11-02T09:55:40;12.20;99.90
53053;DHT22;38934;52.690;6.184;2022-11-02T09:58:17;12.20;99.90
53053;DHT22;38934;52.690;6.184;2022-11-02T10:00:44;12.20;99.90
53053;DHT22;38934;52.690;6.184;2022-11-02T10:03:18;12.20;99.90
53053;DHT22;38934;52.690;6.184;2022-11-02T10:05:46;12.20;99.90
53053;DHT22;38934;52.690;6.184;2022-11-02T10:08:21;12.20;99.90
53053;DHT22;38934;52.690;6.184;2022-11-02T10:10:53;12.10;99.90
53053;DHT22;38934;52.690;6.184;2022-11-02T10:16:16;12.20;99.90
53053;DHT22;38934;52.690;6.184;2022-11-02T10:18:44;12.30;99.90
53053;DHT22;38934;52.690;6.184;2022-11-02T10:21:20;12.40;99.90
53053;DHT22;38934;52.690;6.184;2022-11-02T10:23:51;12.40;99.90
53053;DHT22;38934;52.690;6.184;2022-11-02T10:26:18;12.50;99.90
53053;DHT22;38934;52.690;6.184;2022-11-02T10:28:46;12.50;99.90
53053;DHT22;38934;52.690;6.184;2022-11-02T10:31:26;12.60;99.90
53053;DHT22;38934;52.690;6.184;2022-11-02T10:33:53;12.70;99.90
53053;DHT22;38934;52.690;6.184;2022-11-02T10:41:36;12.90;99.90
53053;DHT22;38934;52.690;6.184;2022-11-02T10:46:38;12.90;99.90
53053;DHT22;38934;52.690;6.184;2022-11-02T10:49:13;13.00;99.90
53053;DHT22;38934;52.690;6.184;2022-11-02T10:51:42;13.00;99.90
53053;DHT22;38934;52.690;6.184;2022-11-02T10:54:11;13.10;99.90
53053;DHT22;38934;52.690;6.184;2022-11-02T10:56:38;13.10;99.90
53053;DHT22;38934;52.690;6.184;2022-11-02T10:59:12;13.60;99.90
53053;DHT22;38934;52.690;6.184;2022-11-02T11:01:43;13.20;99.90
53053;DHT22;38934;52.690;6.184;2022-11-02T11:04:23;13.40;99.90
53053;DHT22;38934;52.690;6.184;2022-11-02T11:06:49;13.40;99.90
53053;DHT22;38934;52.690;6.184;2022-11-02T11:09:16;13.60;99.90
53053;DHT22;38934;52.690;6.184;2022-11-02T11:11:58;13.60;99.90
53053;DHT22;38934;52.690;6.184;2022-11-02T11:14:26;13.70;99.90
53053;DHT22;38934;52.690;6.184;2022-11-02T11:16:59;13.70;99.90
53053;DHT22;38934;52.690;6.184;2022-11-02T11:19:32;13.60;99.90
53053;DHT22;38934;52.690;6.184;2022-11-02T11:21:58;13.50;99.90
53053;DHT22;38934;52.690;6.184;2022-11-02T11:24:28;13.60;99.90
53053;DHT22;38934;52.690;6.184;2022-11-02T11:29:39;13.70;99.90
53053;DHT22;38934;52.690;6.184;2022-11-02T11:32:11;13.80;99.90
53053;DHT22;38934;52.690;6.184;2022-11-02T11:34:37;13.90;99.90
53053;DHT22;38934;52.690;6.184;2022-11-02T11:37:07;13.90;99.90
53053;DHT22;38934;52.690;6.184;2022-11-02T11:39:33;13.90;99.90
53053;DHT22;38934;52.690;6.184;2022-11-02T11:42:00;13.90;99.90
53053;DHT22;38934;52.690;6.184;2022-11-02T11:44:26;14.80;99.90
53053;DHT22;38934;52.690;6.184;2022-11-02T11:46:53;13.80;99.90
53053;DHT22;38934;52.690;6.184;2022-11-02T11:49:28;14.30;99.90
53053;DHT22;38934;52.690;6.184;2022-11-02T11:51:55;13.60;99.90
53053;DHT22;38934;52.690;6.184;2022-11-02T11:54:25;13.50;99.90
53053;DHT22;38934;52.690;6.184;2022-11-02T11:56:52;13.40;99.90
53053;DHT22;38934;52.690;6.184;2022-11-02T12:01:44;13.30;99.90
53053;DHT22;38934;52.690;6.184;2022-11-02T12:04:09;13.20;99.90
53053;DHT22;38934;52.690;6.184;2022-11-02T12:06:46;13.40;99.90
53053;DHT22;38934;52.690;6.184;2022-11-02T12:11:49;13.20;99.90
53053;DHT22;38934;52.690;6.184;2022-11-02T12:21:53;13.70;99.90
53053;DHT22;38934;52.690;6.184;2022-11-02T12:24:26;13.80;99.90
53053;DHT22;38934;52.690;6.184;2022-11-02T12:27:18;13.90;99.90
53053;DHT22;38934;52.690;6.184;2022-11-02T12:32:22;13.90;99.90
53053;DHT22;38934;52.690;6.184;2022-11-02T12:45:41;13.70;99.90
53053;DHT22;38934;52.690;6.184;2022-11-02T12:48:13;13.70;99.90
53053;DHT22;38934;52.690;6.184;2022-11-02T12:50:47;13.80;99.90
53053;DHT22;38934;52.690;6.184;2022-11-02T12:55:43;14.00;99.90
53053;DHT22;38934;52.690;6.184;2022-11-02T12:58:12;14.10;99.90
53053;DHT22;38934;52.690;6.184;2022-11-02T13:00:40;14.30;99.90
53053;DHT22;38934;52.690;6.184;2022-11-02T13:05:52;14.20;99.90
53053;DHT22;38934;52.690;6.184;2022-11-02T13:08:30;14.10;99.90
53053;DHT22;38934;52.690;6.184;2022-11-02T13:10:58;14.00;99.90
53053;DHT22;38934;52.690;6.184;2022-11-02T13:13:29;14.30;99.90
53053;DHT22;38934;52.690;6.184;2022-11-02T13:15:57;13.70;99.90
53053;DHT22;38934;52.690;6.184;2022-11-02T13:18:25;13.50;99.90
53053;DHT22;38934;52.690;6.184;2022-11-02T13:20:56;13.50;99.90
53053;DHT22;38934;52.690;6.184;2022-11-02T13:26:05;13.70;99.90
53053;DHT22;38934;52.690;6.184;2022-11-02T13:28:46;13.80;99.90
53053;DHT22;38934;52.690;6.184;2022-11-02T13:31:16;13.80;99.90
53053;DHT22;38934;52.690;6.184;2022-11-02T13:33:46;13.80;99.90
53053;DHT22;38934;52.690;6.184;2022-11-02T13:36:12;13.80;99.90
53053;DHT22;38934;52.690;6.184;2022-11-02T13:38:43;13.70;99.90
53053;DHT22;38934;52.690;6.184;2022-11-02T13:43:56;13.60;99.90
53053;DHT22;38934;52.690;6.184;2022-11-02T13:48:52;13.50;99.90
53053;DHT22;38934;52.690;6.184;2022-11-02T13:51:24;13.50;99.90
53053;DHT22;38934;52.690;6.184;2022-11-02T13:53:59;13.50;99.90
53053;DHT22;38934;52.690;6.184;2022-11-02T13:56:26;13.50;99.90
53053;DHT22;38934;52.690;6.184;2022-11-02T13:58:57;13.60;99.90
53053;DHT22;38934;52.690;6.184;2022-11-02T14:01:23;13.60;99.90
53053;DHT22;38934;52.690;6.184;2022-11-02T14:03:50;13.80;99.90
53053;DHT22;38934;52.690;6.184;2022-11-02T14:06:17;13.50;99.90
53053;DHT22;38934;52.690;6.184;2022-11-02T14:09:03;13.50;99.90
53053;DHT22;38934;52.690;6.184;2022-11-02T14:14:05;13.40;99.90
53053;DHT22;38934;52.690;6.184;2022-11-02T14:21:41;13.30;99.90
53053;DHT22;38934;52.690;6.184;2022-11-02T14:26:52;13.20;99.90
53053;DHT22;38934;52.690;6.184;2022-11-02T14:29:47;13.60;99.90
53053;DHT22;38934;52.690;6.184;2022-11-02T14:37:38;13.10;99.90
53053;DHT22;38934;52.690;6.184;2022-11-02T14:40:09;13.00;99.90
53053;DHT22;38934;52.690;6.184;2022-11-02T14:47:29;12.90;99.90
53053;DHT22;38934;52.690;6.184;2022-11-02T14:50:03;12.90;99.90
53053;DHT22;38934;52.690;6.184;2022-11-02T14:52:32;12.90;99.90
53053;DHT22;38934;52.690;6.184;2022-11-02T14:54:59;12.80;99.90
53053;DHT22;38934;52.690;6.184;2022-11-02T14:59:55;12.70;99.90
53053;DHT22;38934;52.690;6.184;2022-11-02T15:02:29;12.70;99.90
53053;DHT22;38934;52.690;6.184;2022-11-02T15:04:59;12.70;99.90
53053;DHT22;38934;52.690;6.184;2022-11-02T15:07:30;12.60;99.90
53053;DHT22;38934;52.690;6.184;2022-11-02T15:09:58;12.60;99.90
53053;DHT22;38934;52.690;6.184;2022-11-02T15:14:57;12.50;99.90
53053;DHT22;38934;52.690;6.184;2022-11-02T15:19:49;12.50;99.90
53053;DHT22;38934;52.690;6.184;2022-11-02T15:27:33;12.30;99.90
53053;DHT22;38934;52.690;6.184;2022-11-02T15:29:59;12.20;99.90
53053;DHT22;38934;52.690;6.184;2022-11-02T15:32:25;12.10;99.90
53053;DHT22;38934;52.690;6.184;2022-11-02T15:34:52;12.10;99.90
53053;DHT22;38934;52.690;6.184;2022-11-02T15:37:22;11.90;99.90
53053;DHT22;38934;52.690;6.184;2022-11-02T15:39:51;11.90;99.90
53053;DHT22;38934;52.690;6.184;2022-11-02T15:42:20;11.90;99.90
53053;DHT22;38934;52.690;6.184;2022-11-02T15:44:53;11.80;99.90
53053;DHT22;38934;52.690;6.184;2022-11-02T15:48:00;11.70;99.90
53053;DHT22;38934;52.690;6.184;2022-11-02T15:50:34;11.70;99.90
53053;DHT22;38934;52.690;6.184;2022-11-02T15:53:08;11.60;99.90
53053;DHT22;38934;52.690;6.184;2022-11-02T15:55:52;11.50;99.90
53053;DHT22;38934;52.690;6.184;2022-11-02T16:03:41;11.30;99.90
53053;DHT22;38934;52.690;6.184;2022-11-02T16:06:07;11.20;99.90
53053;DHT22;38934;52.690;6.184;2022-11-02T16:08:34;11.20;99.90
53053;DHT22;38934;52.690;6.184;2022-11-02T16:11:04;11.20;99.90
53053;DHT22;38934;52.690;6.184;2022-11-02T16:13:32;11.10;99.90
53053;DHT22;38934;52.690;6.184;2022-11-02T16:16:01;11.10;99.90
53053;DHT22;38934;52.690;6.184;2022-11-02T16:18:31;11.20;99.90
53053;DHT22;38934;52.690;6.184;2022-11-02T16:21:00;11.10;99.90
53053;DHT22;38934;52.690;6.184;2022-11-02T16:23:27;11.10;99.90
53053;DHT22;38934;52.690;6.184;2022-11-02T16:25:54;11.00;99.90
53053;DHT22;38934;52.690;6.184;2022-11-02T16:28:21;11.10;99.90
53053;DHT22;38934;52.690;6.184;2022-11-02T16:33:36;11.00;99.90
53053;DHT22;38934;52.690;6.184;2022-11-02T16:36:02;11.00;99.90
53053;DHT22;38934;52.690;6.184;2022-11-02T16:38:28;10.90;99.90
53053;DHT22;38934;52.690;6.184;2022-11-02T16:40:54;11.00;99.90
53053;DHT22;38934;52.690;6.184;2022-11-02T16:43:20;10.90;99.90
53053;DHT22;38934;52.690;6.184;2022-11-02T16:45:48;10.90;99.90
53053;DHT22;38934;52.690;6.184;2022-11-02T16:48:15;11.00;99.90
53053;DHT22;38934;52.690;6.184;2022-11-02T16:50:41;10.90;99.90
53053;DHT22;38934;52.690;6.184;2022-11-02T16:53:25;11.00;99.90
53053;DHT22;38934;52.690;6.184;2022-11-02T16:55:52;10.90;99.90
53053;DHT22;38934;52.690;6.184;2022-11-02T16:58:22;10.90;99.90
53053;DHT22;38934;52.690;6.184;2022-11-02T17:00:52;10.90;99.90
53053;DHT22;38934;52.690;6.184;2022-11-02T17:03:18;10.90;99.90
53053;DHT22;38934;52.690;6.184;2022-11-02T17:05:46;10.90;99.90
53053;DHT22;38934;52.690;6.184;2022-11-02T17:08:29;10.80;99.90
53053;DHT22;38934;52.690;6.184;2022-11-02T17:10:56;10.80;99.90
53053;DHT22;38934;52.690;6.184;2022-11-02T17:13:23;10.80;99.90
53053;DHT22;38934;52.690;6.184;2022-11-02T17:15:51;10.80;99.90
53053;DHT22;38934;52.690;6.184;2022-11-02T17:20:46;10.80;99.90
53053;DHT22;38934;52.690;6.184;2022-11-02T17:23:45;10.80;99.90
53053;DHT22;38934;52.690;6.184;2022-11-02T17:31:25;10.70;99.90
53053;DHT22;38934;52.690;6.184;2022-11-02T17:33:51;10.70;99.90
53053;DHT22;38934;52.690;6.184;2022-11-02T17:36:17;10.70;99.90
53053;DHT22;38934;52.690;6.184;2022-11-02T17:38:43;10.70;99.90
53053;DHT22;38934;52.690;6.184;2022-11-02T17:41:12;10.70;99.90